sensor_id;sensor_type;location;lat;lon;timestamp;P1;durP1;ratioP1;P2;durP2;ratioP2
16033;SDS011;8121;51.418;6.998;2022-07-26T00:01:05;2.80;;;1.17;;
16033;SDS011;8121;51.418;6.998;2022-07-26T00:11:07;2.70;;;1.10;;
16033;SDS011;8121;51.418;6.998;2022-07-26T00:21:09;2.90;;;1.13;;
16033;SDS011;8121;51.418;6.998;2022-07-26T00:31:11;3.97;;;1.40;;
16033;SDS011;8121;51.418;6.998;2022-07-26T00:41:14;8.33;;;1.90;;
16033;SDS011;8121;51.418;6.998;2022-07-26T00:51:15;5.57;;;1.93;;
16033;SDS011;8121;51.418;6.998;2022-07-26T01:01:18;7.60;;;1.80;;
16033;SDS011;8121;51.418;6.998;2022-07-26T01:11:20;5.23;;;1.90;;
16033;SDS011;8121;51.418;6.998;2022-07-26T01:31:29;3.33;;;1.97;;
16033;SDS011;8121;51.418;6.998;2022-07-26T01:41:32;3.83;;;1.23;;
16033;SDS011;8121;51.418;6.998;2022-07-26T01:51:34;4.97;;;1.33;;
16033;SDS011;8121;51.418;6.998;2022-07-26T02:01:37;7.03;;;1.63;;
16033;SDS011;8121;51.418;6.998;2022-07-26T02:11:38;8.90;;;2.17;;
16033;SDS011;8121;51.418;6.998;2022-07-26T02:21:41;1.90;;;1.20;;
16033;SDS011;8121;51.418;6.998;2022-07-26T02:31:42;13.70;;;1.60;;
16033;SDS011;8121;51.418;6.998;2022-07-26T02:41:45;6.10;;;1.40;;
16033;SDS011;8121;51.418;6.998;2022-07-26T02:51:48;4.43;;;1.70;;
16033;SDS011;8121;51.418;6.998;2022-07-26T03:01:51;7.70;;;1.23;;
16033;SDS011;8121;51.418;6.998;2022-07-26T03:11:52;6.43;;;1.40;;
16033;SDS011;8121;51.418;6.998;2022-07-26T03:21:55;4.70;;;1.47;;
16033;SDS011;8121;51.418;6.998;2022-07-26T03:31:57;5.57;;;1.70;;
16033;SDS011;8121;51.418;6.998;2022-07-26T03:42:02;5.27;;;1.70;;
16033;SDS011;8121;51.418;6.998;2022-07-26T03:52:06;6.57;;;1.90;;
16033;SDS011;8121;51.418;6.998;2022-07-26T04:02:11;3.43;;;1.40;;
16033;SDS011;8121;51.418;6.998;2022-07-26T04:12:13;6.27;;;1.40;;
16033;SDS011;8121;51.418;6.998;2022-07-26T04:22:16;7.23;;;1.73;;
16033;SDS011;8121;51.418;6.998;2022-07-26T04:32:17;6.20;;;2.37;;
16033;SDS011;8121;51.418;6.998;2022-07-26T04:42:20;10.60;;;2.43;;
16033;SDS011;8121;51.418;6.998;2022-07-26T04:52:22;8.10;;;1.77;;
16033;SDS011;8121;51.418;6.998;2022-07-26T05:02:25;9.80;;;2.73;;
16033;SDS011;8121;51.418;6.998;2022-07-26T05:12:27;7.87;;;1.80;;
16033;SDS011;8121;51.418;6.998;2022-07-26T05:22:34;9.70;;;1.93;;
16033;SDS011;8121;51.418;6.998;2022-07-26T05:32:37;12.13;;;2.80;;
16033;SDS011;8121;51.418;6.998;2022-07-26T05:42:40;18.90;;;3.30;;
16033;SDS011;8121;51.418;6.998;2022-07-26T05:52:41;23.67;;;4.23;;
16033;SDS011;8121;51.418;6.998;2022-07-26T06:02:44;17.77;;;3.30;;
16033;SDS011;8121;51.418;6.998;2022-07-26T06:12:46;6.70;;;2.13;;
16033;SDS011;8121;51.418;6.998;2022-07-26T06:22:49;16.63;;;3.00;;
16033;SDS011;8121;51.418;6.998;2022-07-26T06:32:51;9.97;;;3.33;;
16033;SDS011;8121;51.418;6.998;2022-07-26T06:42:55;14.40;;;4.93;;
16033;SDS011;8121;51.418;6.998;2022-07-26T06:52:57;8.40;;;3.80;;
16033;SDS011;8121;51.418;6.998;2022-07-26T07:03:01;7.30;;;2.57;;
16033;SDS011;8121;51.418;6.998;2022-07-26T07:13:07;9.00;;;2.40;;
16033;SDS011;8121;51.418;6.998;2022-07-26T07:23:11;3.20;;;1.87;;
16033;SDS011;8121;51.418;6.998;2022-07-26T07:33:15;7.80;;;2.40;;
16033;SDS011;8121;51.418;6.998;2022-07-26T07:43:19;6.47;;;4.33;;
16033;SDS011;8121;51.418;6.998;2022-07-26T07:53:24;20.83;;;2.70;;
16033;SDS011;8121;51.418;6.998;2022-07-26T08:03:27;9.53;;;3.27;;
16033;SDS011;8121;51.418;6.998;2022-07-26T08:13:28;2.90;;;2.40;;
16033;SDS011;8121;51.418;6.998;2022-07-26T08:23:31;5.07;;;3.23;;
16033;SDS011;8121;51.418;6.998;2022-07-26T08:33:34;2.80;;;1.40;;
16033;SDS011;8121;51.418;6.998;2022-07-26T08:43:39;2.60;;;2.23;;
16033;SDS011;8121;51.418;6.998;2022-07-26T08:53:41;2.67;;;2.00;;
16033;SDS011;8121;51.418;6.998;2022-07-26T09:03:44;2.50;;;1.33;;
16033;SDS011;8121;51.418;6.998;2022-07-26T09:13:49;5.80;;;2.60;;
16033;SDS011;8121;51.418;6.998;2022-07-26T09:23:53;2.20;;;2.00;;
16033;SDS011;8121;51.418;6.998;2022-07-26T09:33:54;5.53;;;2.67;;
16033;SDS011;8121;51.418;6.998;2022-07-26T09:44:02;12.10;;;4.87;;
16033;SDS011;8121;51.418;6.998;2022-07-26T09:54:05;1.70;;;1.60;;
16033;SDS011;8121;51.418;6.998;2022-07-26T10:04:08;11.83;;;2.73;;
16033;SDS011;8121;51.418;6.998;2022-07-26T10:24:36;2.20;;;1.63;;
16033;SDS011;8121;51.418;6.998;2022-07-26T10:34:43;8.27;;;2.50;;
16033;SDS011;8121;51.418;6.998;2022-07-26T10:44:46;1.97;;;1.87;;
16033;SDS011;8121;51.418;6.998;2022-07-26T11:05:13;3.53;;;1.93;;
16033;SDS011;8121;51.418;6.998;2022-07-26T11:15:16;1.23;;;1.10;;
16033;SDS011;8121;51.418;6.998;2022-07-26T11:25:21;1.50;;;0.80;;
16033;SDS011;8121;51.418;6.998;2022-07-26T11:35:25;1.20;;;0.80;;
16033;SDS011;8121;51.418;6.998;2022-07-26T11:45:29;0.70;;;0.60;;
16033;SDS011;8121;51.418;6.998;2022-07-26T11:55:31;1.27;;;0.83;;
16033;SDS011;8121;51.418;6.998;2022-07-26T12:05:34;1.20;;;0.60;;
16033;SDS011;8121;51.418;6.998;2022-07-26T12:15:45;0.70;;;0.50;;
16033;SDS011;8121;51.418;6.998;2022-07-26T12:25:48;1.00;;;0.50;;
16033;SDS011;8121;51.418;6.998;2022-07-26T12:35:50;0.67;;;0.50;;
16033;SDS011;8121;51.418;6.998;2022-07-26T12:45:53;0.70;;;0.60;;
16033;SDS011;8121;51.418;6.998;2022-07-26T12:55:55;0.80;;;0.60;;
16033;SDS011;8121;51.418;6.998;2022-07-26T13:06:01;0.90;;;0.60;;
16033;SDS011;8121;51.418;6.998;2022-07-26T13:16:03;1.17;;;0.63;;
16033;SDS011;8121;51.418;6.998;2022-07-26T13:26:07;1.03;;;0.60;;
16033;SDS011;8121;51.418;6.998;2022-07-26T13:36:08;2.30;;;0.60;;
16033;SDS011;8121;51.418;6.998;2022-07-26T13:46:11;0.80;;;0.80;;
16033;SDS011;8121;51.418;6.998;2022-07-26T13:56:13;3.23;;;0.90;;
16033;SDS011;8121;51.418;6.998;2022-07-26T14:06:16;2.03;;;0.70;;
16033;SDS011;8121;51.418;6.998;2022-07-26T14:16:18;0.80;;;0.63;;
16033;SDS011;8121;51.418;6.998;2022-07-26T14:26:22;2.90;;;1.10;;
16033;SDS011;8121;51.418;6.998;2022-07-26T14:36:24;3.87;;;0.90;;
16033;SDS011;8121;51.418;6.998;2022-07-26T14:46:27;0.70;;;0.60;;
16033;SDS011;8121;51.418;6.998;2022-07-26T14:56:33;0.80;;;0.77;;
16033;SDS011;8121;51.418;6.998;2022-07-26T15:06:36;2.57;;;1.00;;
16033;SDS011;8121;51.418;6.998;2022-07-26T15:16:38;1.30;;;0.57;;
16033;SDS011;8121;51.418;6.998;2022-07-26T15:26:40;0.80;;;0.60;;
16033;SDS011;8121;51.418;6.998;2022-07-26T15:36:42;1.90;;;0.50;;
16033;SDS011;8121;51.418;6.998;2022-07-26T15:46:48;0.70;;;0.50;;
16033;SDS011;8121;51.418;6.998;2022-07-26T15:56:52;0.80;;;0.50;;
16033;SDS011;8121;51.418;6.998;2022-07-26T16:06:55;1.00;;;0.70;;
16033;SDS011;8121;51.418;6.998;2022-07-26T16:16:56;1.70;;;0.60;;
16033;SDS011;8121;51.418;6.998;2022-07-26T16:27:04;1.60;;;0.90;;
16033;SDS011;8121;51.418;6.998;2022-07-26T16:48:00;1.67;;;0.90;;
16033;SDS011;8121;51.418;6.998;2022-07-26T16:58:08;7.43;;;2.23;;
16033;SDS011;8121;51.418;6.998;2022-07-26T17:08:14;4.50;;;1.13;;
16033;SDS011;8121;51.418;6.998;2022-07-26T17:18:18;4.93;;;1.93;;
16033;SDS011;8121;51.418;6.998;2022-07-26T17:28:22;3.80;;;1.13;;
16033;SDS011;8121;51.418;6.998;2022-07-26T17:38:26;5.27;;;1.40;;
16033;SDS011;8121;51.418;6.998;2022-07-26T17:48:29;6.97;;;1.20;;
16033;SDS011;8121;51.418;6.998;2022-07-26T17:58:30;5.53;;;1.90;;
16033;SDS011;8121;51.418;6.998;2022-07-26T18:08:33;13.00;;;1.90;;
16033;SDS011;8121;51.418;6.998;2022-07-26T18:18:35;2.60;;;1.70;;
16033;SDS011;8121;51.418;6.998;2022-07-26T18:28:38;4.00;;;1.20;;
16033;SDS011;8121;51.418;6.998;2022-07-26T18:38:39;5.37;;;2.20;;
16033;SDS011;8121;51.418;6.998;2022-07-26T18:48:43;7.70;;;1.73;;
16033;SDS011;8121;51.418;6.998;2022-07-26T18:58:44;6.07;;;1.63;;
16033;SDS011;8121;51.418;6.998;2022-07-26T19:08:47;2.97;;;1.60;;
16033;SDS011;8121;51.418;6.998;2022-07-26T19:18:49;4.77;;;1.60;;
16033;SDS011;8121;51.418;6.998;2022-07-26T19:28:52;4.70;;;1.57;;
16033;SDS011;8121;51.418;6.998;2022-07-26T19:38:53;12.57;;;1.53;;
16033;SDS011;8121;51.418;6.998;2022-07-26T19:48:57;3.10;;;0.90;;
16033;SDS011;8121;51.418;6.998;2022-07-26T19:58:59;1.73;;;1.20;;
16033;SDS011;8121;51.418;6.998;2022-07-26T20:09:03;7.47;;;2.00;;
16033;SDS011;8121;51.418;6.998;2022-07-26T20:19:05;3.90;;;1.37;;
16033;SDS011;8121;51.418;6.998;2022-07-26T20:29:08;6.37;;;2.23;;
16033;SDS011;8121;51.418;6.998;2022-07-26T20:39:10;3.90;;;1.37;;
16033;SDS011;8121;51.418;6.998;2022-07-26T20:49:15;2.50;;;1.57;;
16033;SDS011;8121;51.418;6.998;2022-07-26T20:59:17;4.20;;;1.20;;
16033;SDS011;8121;51.418;6.998;2022-07-26T21:09:20;3.20;;;1.50;;
16033;SDS011;8121;51.418;6.998;2022-07-26T21:19:25;5.73;;;1.10;;
16033;SDS011;8121;51.418;6.998;2022-07-26T21:29:28;5.37;;;1.53;;
16033;SDS011;8121;51.418;6.998;2022-07-26T21:39:30;4.60;;;1.30;;
16033;SDS011;8121;51.418;6.998;2022-07-26T21:49:33;4.67;;;1.40;;
16033;SDS011;8121;51.418;6.998;2022-07-26T21:59:35;6.40;;;1.47;;
16033;SDS011;8121;51.418;6.998;2022-07-26T22:09:38;5.63;;;1.37;;
16033;SDS011;8121;51.418;6.998;2022-07-26T22:19:39;8.60;;;1.20;;
16033;SDS011;8121;51.418;6.998;2022-07-26T22:29:42;15.20;;;1.37;;
16033;SDS011;8121;51.418;6.998;2022-07-26T22:39:44;3.70;;;1.47;;
16033;SDS011;8121;51.418;6.998;2022-07-26T22:49:46;2.80;;;1.13;;
16033;SDS011;8121;51.418;6.998;2022-07-26T22:59:49;11.90;;;3.93;;
16033;SDS011;8121;51.418;6.998;2022-07-26T23:09:52;2.10;;;1.30;;
16033;SDS011;8121;51.418;6.998;2022-07-26T23:19:53;3.87;;;1.27;;
16033;SDS011;8121;51.418;6.998;2022-07-26T23:29:56;10.33;;;1.00;;
16033;SDS011;8121;51.418;6.998;2022-07-26T23:39:58;3.63;;;1.37;;
16033;SDS011;8121;51.418;6.998;2022-07-26T23:50:00;5.43;;;0.90;;
